Terminal Aerodrome Forecast
Issued by NWS Detroit/Pontiac, MI

Home | Current Version | Previous Version | Text Only | Print | Product List | Glossary On
Versions: 1 2 3 4 5 6 7 8 9 10 11 12 13 14 15 16 17 18 19 20 21
343
FTUS43 KDTX 231926 AAA
TAFFNT
TAF AMD
KFNT 231926Z 2319/2418 22006KT P6SM BKN060 OVC100
      TEMPO 2320/2324 P6SM -SHRA OVC050
     FM240200 06004KT P6SM OVC080
     FM241300 08007KT 6SM -SHRA BR OVC025=

USA.gov is the U.S. government's official web portal to all federal, state and local government web resources and services.